Time;durP1;ratioP1;P1;durP2;ratioP2;P2;SDS_P1;SDS_P2;PMS_P1;PMS_P2;Temp;Humidity;BMP_temperature;BMP_pressure;BME280_temperature;BME280_humidity;BME280_pressure;Samples;Min_cycle;Max_cycle;Signal;HPM_P1;HPM_P2
2022/06/15 03:00:58;;;;;;;3.03;1.52;;;25.50;33.90;;;;;;5663338;23;45883;-63
2022/06/15 03:03:24;;;;;;;3.28;1.60;;;25.50;33.90;;;;;;4915233;28;45400;-62
2022/06/15 03:05:50;;;;;;;5.57;1.90;;;25.50;33.90;;;;;;4939843;28;45933;-62
2022/06/15 03:08:16;;;;;;;3.33;1.90;;;25.50;33.90;;;;;;4950753;28;44992;-62
2022/06/15 03:10:42;;;;;;;2.53;1.60;;;25.50;33.90;;;;;;4924434;28;44800;-63
2022/06/15 03:13:08;;;;;;;2.78;1.63;;;25.50;33.90;;;;;;4924505;28;45292;-63
2022/06/15 03:15:34;;;;;;;3.28;1.70;;;25.50;33.90;;;;;;4916575;28;45643;-64
2022/06/15 03:17:59;;;;;;;4.18;1.80;;;25.50;34.00;;;;;;4913971;28;45279;-64
2022/06/15 03:20:25;;;;;;;3.97;1.50;;;25.40;34.00;;;;;;4916691;28;45082;-63
2022/06/15 03:22:51;;;;;;;3.03;1.48;;;25.40;34.00;;;;;;4926245;28;45079;-64
2022/06/15 03:25:17;;;;;;;1.55;1.05;;;25.40;34.10;;;;;;4915353;28;45308;-63
2022/06/15 03:27:42;;;;;;;2.58;1.52;;;25.40;34.10;;;;;;4927295;28;44978;-64
2022/06/15 03:30:08;;;;;;;2.05;1.38;;;25.40;34.10;;;;;;4933705;28;45111;-64
2022/06/15 03:32:34;;;;;;;1.83;1.30;;;25.40;34.10;;;;;;4906282;28;45279;-64
2022/06/15 03:35:00;;;;;;;1.90;1.13;;;25.40;34.10;;;;;;4926085;28;46049;-64
2022/06/15 03:37:26;;;;;;;3.70;1.30;;;25.40;34.10;;;;;;4914902;28;46048;-65
2022/06/15 03:39:54;;;;;;;3.20;1.25;;;25.40;34.20;;;;;;4937921;28;45074;-64
2022/06/15 03:42:22;;;;;;;2.75;1.35;;;25.40;34.20;;;;;;4934024;28;45207;-64
2022/06/15 03:44:48;;;;;;;1.63;1.33;;;25.40;34.30;;;;;;4928973;28;44960;-62
2022/06/15 03:47:17;;;;;;;1.63;1.10;;;25.30;34.20;;;;;;4923486;28;44908;-63
2022/06/15 03:49:43;;;;;;;2.75;1.30;;;25.30;34.20;;;;;;4928834;28;45058;-64
2022/06/15 03:52:10;;;;;;;4.82;1.30;;;25.40;34.30;;;;;;4920542;28;45100;-63
2022/06/15 03:54:36;;;;;;;3.10;1.50;;;25.30;34.30;;;;;;4927376;28;45887;-65
2022/06/15 03:57:02;;;;;;;4.07;1.27;;;25.30;34.30;;;;;;4909607;28;46394;-62
2022/06/15 03:59:28;;;;;;;4.30;1.25;;;25.30;34.30;;;;;;4915772;28;45066;-62
2022/06/15 04:01:53;;;;;;;3.90;1.38;;;25.30;34.30;;;;;;4898349;28;45178;-63
2022/06/15 04:04:19;;;;;;;2.03;1.05;;;25.30;34.40;;;;;;4901826;28;45284;-63
2022/06/15 04:06:44;;;;;;;2.45;1.30;;;25.20;34.40;;;;;;4890474;28;45128;-64
2022/06/15 04:09:10;;;;;;;2.88;1.40;;;25.20;34.40;;;;;;4911272;28;45508;-63
2022/06/15 04:14:21;;;;;;;4.47;1.35;;;25.30;34.60;;;;;;4898815;28;45013;-64
2022/06/15 04:16:53;;;;;;;1.70;1.23;;;25.20;34.50;;;;;;4909941;28;45205;-63
2022/06/15 04:19:20;;;;;;;1.73;1.30;;;25.20;34.50;;;;;;4900854;28;45023;-64
2022/06/15 04:21:45;;;;;;;2.45;1.27;;;25.20;34.60;;;;;;4907150;28;45417;-63
2022/06/15 04:24:11;;;;;;;2.28;1.20;;;25.20;34.60;;;;;;4910988;28;45985;-64
2022/06/15 04:26:38;;;;;;;2.53;1.13;;;25.20;34.60;;;;;;4910783;28;45529;-64
2022/06/15 04:29:04;;;;;;;1.92;1.10;;;25.20;34.70;;;;;;4914676;28;45083;-63
2022/06/15 04:31:29;;;;;;;2.33;1.42;;;25.20;34.70;;;;;;4895462;28;45187;-64
2022/06/15 04:33:55;;;;;;;2.03;1.23;;;25.20;35.30;;;;;;4899118;28;46118;-64
2022/06/15 04:36:20;;;;;;;2.55;1.23;;;25.20;34.70;;;;;;4899364;28;44875;-64
2022/06/15 04:38:46;;;;;;;2.08;1.10;;;25.20;34.80;;;;;;4888439;28;45105;-64
2022/06/15 04:41:12;;;;;;;4.00;1.17;;;25.20;34.90;;;;;;4890194;28;45026;-64
2022/06/15 04:43:37;;;;;;;2.72;1.20;;;25.20;34.90;;;;;;4907095;28;45998;-64
2022/06/15 04:46:03;;;;;;;2.17;1.20;;;25.10;34.90;;;;;;4916360;28;45306;-63
2022/06/15 04:48:29;;;;;;;2.50;1.38;;;25.20;35.00;;;;;;4915212;28;45169;-64
2022/06/15 04:50:55;;;;;;;1.80;1.30;;;25.20;35.00;;;;;;4891699;28;45367;-63
2022/06/15 04:53:21;;;;;;;1.65;1.00;;;25.10;35.00;;;;;;4912053;28;45227;-64
2022/06/15 04:55:46;;;;;;;2.45;1.30;;;25.10;35.10;;;;;;4915793;28;44962;-64
2022/06/15 04:58:12;;;;;;;1.98;1.15;;;25.10;35.20;;;;;;4905082;28;45194;-64
2022/06/15 05:00:40;;;;;;;3.00;1.55;;;25.10;35.30;;;;;;4892769;28;45383;-64
2022/06/15 05:03:06;;;;;;;2.38;1.20;;;25.10;35.30;;;;;;4928790;28;45168;-63
2022/06/15 05:05:32;;;;;;;2.22;1.27;;;25.10;35.20;;;;;;4908614;28;44730;-63
2022/06/15 05:07:57;;;;;;;1.45;1.17;;;25.10;35.30;;;;;;4910584;28;45679;-64
2022/06/15 05:10:24;;;;;;;3.05;1.65;;;25.20;35.40;;;;;;4928307;28;45054;-64
2022/06/15 05:12:49;;;;;;;1.17;0.90;;;25.10;35.40;;;;;;4892960;28;46204;-63
2022/06/15 05:15:15;;;;;;;3.45;1.30;;;25.20;35.50;;;;;;4929017;28;44756;-64
2022/06/15 05:17:41;;;;;;;2.30;1.27;;;25.20;35.50;;;;;;4922935;28;45097;-63
2022/06/15 05:20:09;;;;;;;2.97;1.33;;;25.20;35.50;;;;;;4925569;28;44878;-64
2022/06/15 05:22:36;;;;;;;1.88;1.10;;;25.20;35.50;;;;;;4926021;28;44982;-63
2022/06/15 05:25:02;;;;;;;2.40;1.48;;;25.20;35.50;;;;;;4912974;28;44953;-63
2022/06/15 05:27:28;;;;;;;1.88;1.30;;;25.30;35.50;;;;;;4925748;28;44853;-63
2022/06/15 05:29:53;;;;;;;3.22;1.45;;;25.30;35.40;;;;;;4924291;28;46455;-62
2022/06/15 05:32:19;;;;;;;1.58;1.20;;;25.40;35.50;;;;;;4928775;28;45028;-63
2022/06/15 05:34:44;;;;;;;1.83;1.30;;;25.40;35.50;;;;;;4910835;28;44916;-63
2022/06/15 05:37:10;;;;;;;3.30;1.10;;;25.40;35.40;;;;;;4932655;28;45100;-64
2022/06/15 05:39:35;;;;;;;4.90;1.50;;;25.50;35.40;;;;;;4929099;28;44967;-62
2022/06/15 05:42:03;;;;;;;1.60;1.50;;;25.50;35.40;;;;;;4932108;28;45088;-64
2022/06/15 05:44:51;;;;;;;2.10;1.55;;;25.50;35.40;;;;;;4931211;28;44963;-63
2022/06/15 05:47:16;;;;;;;3.13;1.70;;;25.50;35.40;;;;;;4935063;28;44779;-61
2022/06/15 05:49:42;;;;;;;3.67;1.65;;;25.50;35.40;;;;;;4926237;28;45110;-60
2022/06/15 05:52:08;;;;;;;2.72;1.98;;;25.50;35.40;;;;;;4928200;28;45380;-57
2022/06/15 05:54:33;;;;;;;3.67;1.73;;;25.50;35.50;;;;;;4937629;28;44927;-59
2022/06/15 05:56:59;;;;;;;3.90;1.80;;;25.50;35.60;;;;;;4932621;28;45005;-61
2022/06/15 05:59:24;;;;;;;3.38;1.63;;;25.50;35.60;;;;;;4935656;28;44787;-66
2022/06/15 06:01:50;;;;;;;2.70;1.65;;;25.50;35.60;;;;;;4934707;28;46158;-58
2022/06/15 06:04:17;;;;;;;4.32;1.58;;;25.50;35.80;;;;;;4927166;28;44857;-57
2022/06/15 06:06:42;;;;;;;6.38;1.63;;;25.50;35.90;;;;;;4938224;28;44981;-58
2022/06/15 06:09:09;;;;;;;2.92;1.80;;;25.50;35.90;;;;;;4932068;28;44759;-62
2022/06/15 06:11:35;;;;;;;2.80;1.92;;;25.50;35.90;;;;;;4922050;28;46221;-61
2022/06/15 06:14:01;;;;;;;3.92;1.80;;;25.50;36.00;;;;;;4925190;28;44931;-60
2022/06/15 06:16:27;;;;;;;2.78;1.45;;;25.50;36.10;;;;;;4929424;28;45067;-60
2022/06/15 06:18:52;;;;;;;3.17;1.60;;;25.50;36.20;;;;;;4931086;28;44894;-61
2022/06/15 06:21:18;;;;;;;3.63;1.90;;;25.50;36.20;;;;;;4926976;28;46048;-59
2022/06/15 06:23:44;;;;;;;3.50;1.65;;;25.60;36.20;;;;;;4932686;28;45648;-60
2022/06/15 06:26:24;;;;;;;3.55;1.60;;;25.60;36.40;;;;;;4932607;28;45121;-60
2022/06/15 06:28:50;;;;;;;3.38;1.48;;;25.60;36.60;;;;;;4906150;28;44979;-58
2022/06/15 06:31:16;;;;;;;2.38;1.60;;;25.60;36.50;;;;;;4943382;28;46112;-58
2022/06/15 06:33:42;;;;;;;3.53;1.90;;;25.60;36.40;;;;;;4930803;28;45077;-58
2022/06/15 06:36:31;;;;;;;7.18;1.80;;;25.70;36.30;;;;;;4933567;28;45137;-57
2022/06/15 06:38:57;;;;;;;2.83;1.50;;;25.80;36.60;;;;;;4933563;28;45051;-55
2022/06/15 06:41:24;;;;;;;3.28;1.58;;;25.80;36.30;;;;;;4941242;28;46145;-61
2022/06/15 06:43:49;;;;;;;3.45;1.67;;;25.90;36.30;;;;;;4909923;28;44924;-60
2022/06/15 06:46:15;;;;;;;5.07;1.45;;;25.90;36.20;;;;;;4938266;28;45875;-61
2022/06/15 06:48:41;;;;;;;3.60;1.63;;;26.00;36.20;;;;;;4931735;28;45159;-67
2022/06/15 06:51:06;;;;;;;2.88;1.35;;;26.00;36.10;;;;;;4928584;28;46225;-56
2022/06/15 06:53:32;;;;;;;5.03;1.83;;;26.10;36.10;;;;;;4921463;28;44790;-58
2022/06/15 06:56:05;;;;;;;2.08;1.50;;;26.20;36.10;;;;;;4938220;28;45336;-60
2022/06/15 06:58:30;;;;;;;2.25;1.48;;;26.20;36.10;;;;;;4932427;28;44955;-62
2022/06/15 07:00:56;;;;;;;6.22;1.67;;;26.20;36.00;;;;;;4930497;28;46500;-61
2022/06/15 07:03:22;;;;;;;4.05;1.60;;;26.20;36.00;;;;;;4929819;28;45243;-57
2022/06/15 07:05:47;;;;;;;2.53;1.50;;;26.20;36.00;;;;;;4928682;28;45805;-59
2022/06/15 07:08:13;;;;;;;3.67;1.73;;;26.30;36.00;;;;;;4937015;28;44962;-62
2022/06/15 07:10:39;;;;;;;5.25;1.70;;;26.40;36.00;;;;;;4936981;28;45870;-60
2022/06/15 07:13:05;;;;;;;5.20;2.00;;;26.50;35.90;;;;;;4943197;28;44910;-61
2022/06/15 07:15:31;;;;;;;3.65;1.70;;;26.50;35.80;;;;;;4915216;28;45201;-65
2022/06/15 07:18:00;;;;;;;4.35;1.40;;;26.60;35.70;;;;;;4941266;28;45072;-55
2022/06/15 07:20:29;;;;;;;2.70;1.80;;;26.60;35.60;;;;;;4930767;28;46476;-62
2022/06/15 07:22:55;;;;;;;4.57;1.63;;;26.70;35.60;;;;;;4933224;28;44619;-59
2022/06/15 07:25:21;;;;;;;3.45;2.00;;;26.70;35.40;;;;;;4937676;28;45111;-58
2022/06/15 07:27:46;;;;;;;3.38;1.80;;;26.70;35.20;;;;;;4935085;28;44913;-59
2022/06/15 07:30:15;;;;;;;4.95;1.67;;;26.80;35.30;;;;;;4933977;28;46093;-60
2022/06/15 07:32:40;;;;;;;3.45;1.75;;;26.80;35.20;;;;;;4931241;28;44993;-59
2022/06/15 07:35:07;;;;;;;3.70;1.55;;;26.80;35.20;;;;;;4930646;28;45096;-62
2022/06/15 07:37:32;;;;;;;5.95;1.58;;;26.90;35.10;;;;;;4942080;28;45398;-60
2022/06/15 07:39:58;;;;;;;2.33;1.75;;;27.00;35.10;;;;;;4922335;28;46116;-57
2022/06/15 07:42:24;;;;;;;3.28;1.88;;;27.00;35.00;;;;;;4933530;28;44894;-59
2022/06/15 07:44:50;;;;;;;4.10;2.08;;;27.00;34.90;;;;;;4942379;28;44988;-62
2022/06/15 07:50:00;;;;;;;2.45;1.60;;;27.10;34.70;;;;;;4928622;28;45908;-60
2022/06/15 07:52:33;;;;;;;2.58;1.58;;;27.10;34.70;;;;;;4929575;28;44888;-62
2022/06/15 07:54:59;;;;;;;7.75;2.00;;;27.10;34.70;;;;;;4923627;28;45046;-60
2022/06/15 07:57:25;;;;;;;4.60;1.40;;;27.10;34.70;;;;;;4931989;28;45219;-62
2022/06/15 07:59:50;;;;;;;4.40;1.60;;;27.20;34.70;;;;;;4927762;28;45061;-59
2022/06/15 08:02:17;;;;;;;4.18;1.95;;;27.20;34.70;;;;;;4933551;28;45454;-61
2022/06/15 08:04:42;;;;;;;5.45;1.88;;;27.30;34.70;;;;;;4930948;28;45004;-56
2022/06/15 08:07:09;;;;;;;3.30;1.80;;;27.30;34.60;;;;;;4933124;28;45276;-62
2022/06/15 08:09:34;;;;;;;4.95;1.60;;;27.40;34.60;;;;;;4909338;28;45913;-59
2022/06/15 08:12:12;;;;;;;2.83;1.50;;;27.30;34.60;;;;;;4928778;28;45067;-60
2022/06/15 08:14:46;;;;;;;2.45;1.42;;;27.30;34.60;;;;;;4938011;28;45172;-57
2022/06/15 08:17:16;;;;;;;3.25;1.67;;;27.40;34.60;;;;;;4932100;28;44703;-55
2022/06/15 08:19:43;;;;;;;4.68;1.80;;;27.40;34.70;;;;;;4896265;28;45145;-56
2022/06/15 08:22:09;;;;;;;6.32;1.92;;;27.40;34.70;;;;;;4897177;28;45349;-59
2022/06/15 08:24:34;;;;;;;7.90;1.52;;;27.50;34.50;;;;;;4923054;28;45223;-58
2022/06/15 08:27:00;;;;;;;4.80;1.70;;;27.50;34.30;;;;;;4900636;28;44970;-59
2022/06/15 08:29:26;;;;;;;6.68;1.80;;;27.60;34.20;;;;;;4929185;28;46294;-57
2022/06/15 08:31:56;;;;;;;2.65;1.58;;;27.60;34.10;;;;;;4902874;28;44891;-61
2022/06/15 08:34:23;;;;;;;4.72;2.03;;;27.70;34.00;;;;;;4934775;28;45758;-57
2022/06/15 08:36:49;;;;;;;3.58;1.67;;;27.70;33.90;;;;;;4922299;28;45065;-61
2022/06/15 08:39:14;;;;;;;5.22;1.83;;;27.80;33.70;;;;;;4931198;28;45930;-58
2022/06/15 08:41:40;;;;;;;4.60;1.85;;;27.80;33.50;;;;;;4926367;28;45089;-59
2022/06/15 08:44:34;;;;;;;3.53;1.60;;;27.80;33.40;;;;;;4934587;28;45076;-60
2022/06/15 08:47:08;;;;;;;2.72;1.50;;;27.90;32.80;;;;;;4902960;28;44957;-55
2022/06/15 08:49:52;;;;;;;4.30;1.90;;;27.90;33.20;;;;;;4917879;28;45628;-59
2022/06/15 08:52:43;;;;;;;4.65;1.23;;;27.90;33.00;;;;;;4934868;28;44955;-59
2022/06/15 08:55:32;;;;;;;2.15;1.60;;;27.90;33.10;;;;;;4938775;28;45034;-56
2022/06/15 08:58:03;;;;;;;6.55;2.00;;;28.00;32.90;;;;;;4910168;28;45113;-60
2022/06/15 09:00:32;;;;;;;2.35;1.40;;;28.00;32.90;;;;;;4913454;28;46274;-62
2022/06/15 09:03:22;;;;;;;4.20;1.65;;;28.00;32.80;;;;;;4896784;28;45203;-57
2022/06/15 09:06:08;;;;;;;7.03;1.50;;;28.00;32.70;;;;;;4911775;28;45264;-59
2022/06/15 09:08:45;;;;;;;3.67;1.48;;;28.10;32.70;;;;;;4918226;28;44916;-60
2022/06/15 09:11:32;;;;;;;2.60;1.63;;;28.10;32.90;;;;;;4931798;28;45362;-60
2022/06/15 09:14:14;;;;;;;4.43;1.48;;;28.10;32.80;;;;;;4932594;28;44891;-62
2022/06/15 09:16:42;;;;;;;3.60;1.67;;;28.10;32.70;;;;;;4927978;28;45074;-62
2022/06/15 09:19:13;;;;;;;3.38;1.70;;;28.10;32.90;;;;;;4932414;28;44960;-58
2022/06/15 09:22:00;;;;;;;3.45;1.40;;;28.10;32.90;;;;;;4923347;28;46111;-57
2022/06/15 09:24:40;;;;;;;2.88;1.52;;;28.20;32.90;;;;;;4897954;28;44990;-61
2022/06/15 09:27:11;;;;;;;2.30;1.30;;;28.20;32.90;;;;;;4920894;28;45035;-61
2022/06/15 09:29:45;;;;;;;4.07;1.55;;;28.20;33.00;;;;;;4909264;28;44986;-62
2022/06/15 09:32:21;;;;;;;2.78;1.70;;;28.20;33.00;;;;;;4931665;28;46136;-62
2022/06/15 09:35:13;;;;;;;3.13;1.88;;;28.30;32.80;;;;;;4929774;28;45331;-61
2022/06/15 09:37:42;;;;;;;4.88;1.70;;;28.30;32.80;;;;;;4907916;28;45256;-61
2022/06/15 09:40:08;;;;;;;3.95;1.70;;;28.30;32.90;;;;;;4911494;28;46267;-60
2022/06/15 09:43:01;;;;;;;5.38;1.50;;;28.40;32.80;;;;;;4927809;28;46172;-58
2022/06/15 09:45:35;;;;;;;5.40;1.58;;;28.50;32.10;;;;;;4901293;28;45196;-60
2022/06/15 09:48:24;;;;;;;4.93;1.45;;;28.50;32.00;;;;;;4916223;28;45601;-60
2022/06/15 09:51:03;;;;;;;5.38;1.58;;;28.50;31.60;;;;;;4909901;28;45086;-61
2022/06/15 09:54:06;;;;;;;2.75;1.58;;;28.50;32.00;;;;;;4906232;28;45099;-62
2022/06/15 09:56:32;;;;;;;4.05;1.75;;;28.50;31.40;;;;;;4925454;28;44740;-61
2022/06/15 09:59:06;;;;;;;2.60;1.50;;;28.50;31.90;;;;;;4918407;28;45024;-61
2022/06/15 10:01:41;;;;;;;5.75;1.50;;;28.60;31.80;;;;;;4899541;28;45478;-60
2022/06/15 10:04:10;;;;;;;2.08;1.70;;;28.60;31.70;;;;;;4934813;28;45995;-62
2022/06/15 10:07:15;;;;;;;3.35;1.60;;;28.60;31.80;;;;;;4895148;28;45083;-61
2022/06/15 10:09:48;;;;;;;4.05;1.33;;;28.70;31.40;;;;;;4919561;28;44785;-61
2022/06/15 10:15:19;;;;;;;3.95;1.33;;;28.70;31.40;;;;;;4933137;28;45062;-63
2022/06/15 10:17:48;;;;;;;5.70;1.70;;;28.70;31.60;;;;;;4891521;28;45133;-63
2022/06/15 10:20:35;;;;;;;3.00;1.40;;;28.80;31.50;;;;;;4937974;28;45347;-62
2022/06/15 10:23:06;;;;;;;3.10;1.80;;;28.80;31.10;;;;;;4916039;28;44975;-64
2022/06/15 10:25:36;;;;;;;2.35;1.40;;;28.80;31.40;;;;;;4918801;28;45070;-63
2022/06/15 10:28:16;;;;;;;4.28;1.75;;;28.80;31.30;;;;;;4914101;28;45216;-63
2022/06/15 10:30:56;;;;;;;1.98;1.70;;;28.80;31.10;;;;;;4931271;28;45136;-64
2022/06/15 10:33:22;;;;;;;3.30;1.52;;;28.80;31.00;;;;;;4892921;28;45074;-63
2022/06/15 10:35:50;;;;;;;5.50;1.50;;;28.80;31.10;;;;;;4915975;28;46014;-64
2022/06/15 10:38:16;;;;;;;5.90;1.50;;;28.90;31.00;;;;;;4913706;28;44919;-62
2022/06/15 10:40:55;;;;;;;3.92;1.70;;;29.00;30.90;;;;;;4932716;28;45103;-62
2022/06/15 10:43:29;;;;;;;2.33;1.52;;;29.00;30.50;;;;;;4900853;28;44963;-63
2022/06/15 10:46:04;;;;;;;2.83;1.40;;;29.00;30.50;;;;;;4916177;28;45566;-62
2022/06/15 10:48:46;;;;;;;4.72;1.50;;;29.00;30.60;;;;;;4931955;28;44941;-62
2022/06/15 10:51:17;;;;;;;5.15;1.60;;;29.10;30.00;;;;;;4924882;28;45227;-62
2022/06/15 10:54:14;;;;;;;2.80;1.55;;;29.10;30.20;;;;;;4896728;28;45295;-62
2022/06/15 11:02:30;;;;;;;2.55;1.33;;;29.10;30.00;;;;;;4917240;28;45143;-63
2022/06/15 11:04:58;;;;;;;2.38;1.40;;;29.20;30.10;;;;;;4930187;28;45164;-62
2022/06/15 11:07:31;;;;;;;3.20;1.50;;;29.10;30.10;;;;;;4896231;28;45979;-62
2022/06/15 11:09:57;;;;;;;;;;;29.20;30.10;;;;;;4930201;28;44938;-61
2022/06/15 11:12:31;;;;;;;3.25;1.00;;;29.20;29.50;;;;;;4934703;28;45156;-61
2022/06/15 11:15:00;;;;;;;2.10;1.23;;;29.20;29.60;;;;;;4913735;28;45054;-62
2022/06/15 11:20:43;;;;;;;2.15;1.20;;;29.30;29.90;;;;;;4915129;28;45190;-63
2022/06/15 11:23:11;;;;;;;;;;;29.30;29.50;;;;;;4930367;28;44835;-63
2022/06/15 11:29:01;;;;;;;1.67;0.90;;;29.30;29.80;;;;;;4889535;28;46939;-63
2022/06/15 11:31:27;;;;;;;3.42;1.33;;;29.30;29.70;;;;;;4932520;28;45068;-61
2022/06/15 11:34:09;;;;;;;3.28;1.20;;;29.40;29.70;;;;;;4914983;28;45193;-62
2022/06/15 11:37:06;;;;;;;2.38;1.25;;;29.40;29.70;;;;;;4913375;28;44876;-63
2022/06/15 11:39:41;;;;;;;2.58;1.10;;;29.40;29.30;;;;;;4916052;28;46333;-62
2022/06/15 11:42:09;;;;;;;3.72;1.02;;;29.40;29.50;;;;;;4909776;28;45221;-63
2022/06/15 11:44:35;;;;;;;2.67;1.17;;;29.50;29.50;;;;;;4886199;28;45775;-63
2022/06/15 11:47:15;;;;;;;3.15;1.30;;;29.50;29.50;;;;;;4927440;28;45158;-60
2022/06/15 11:49:44;;;;;;;2.08;1.30;;;29.50;29.20;;;;;;4928593;28;45165;-62
2022/06/15 11:52:18;;;;;;;2.72;0.85;;;29.50;29.30;;;;;;4935960;28;45073;-62
2022/06/15 11:55:07;;;;;;;2.97;1.00;;;29.60;29.20;;;;;;4908089;28;45385;-62
2022/06/15 11:57:57;;;;;;;3.45;0.90;;;29.60;28.80;;;;;;4935565;28;45503;-62
2022/06/15 12:00:42;;;;;;;1.27;0.90;;;29.70;28.60;;;;;;4928626;28;46453;-61
2022/06/15 12:03:44;;;;;;;1.70;0.95;;;29.70;29.00;;;;;;4893949;28;46024;-62
2022/06/15 12:06:26;;;;;;;1.58;0.80;;;29.70;28.60;;;;;;4934803;28;45149;-61
2022/06/15 12:08:59;;;;;;;6.82;1.13;;;29.60;28.90;;;;;;4911056;28;45386;-62
2022/06/15 12:14:37;;;;;;;1.63;1.00;;;29.60;28.50;;;;;;4927298;28;45089;-61
2022/06/15 12:17:31;;;;;;;2.83;0.98;;;29.70;28.70;;;;;;4927101;28;45109;-62
2022/06/15 12:19:59;;;;;;;0.77;0.77;;;29.80;28.70;;;;;;4905747;28;45299;-61
2022/06/15 12:22:38;;;;;;;1.38;0.90;;;29.80;28.70;;;;;;4908524;28;45741;-62
2022/06/15 12:25:16;;;;;;;0.95;0.82;;;29.80;27.90;;;;;;4895164;28;44928;-62
2022/06/15 12:28:02;;;;;;;1.60;1.00;;;29.90;27.80;;;;;;4910404;28;44682;-62
2022/06/15 12:30:42;;;;;;;1.60;1.15;;;29.90;27.70;;;;;;4929018;28;45164;-65
2022/06/15 12:33:35;;;;;;;1.65;1.00;;;29.90;28.00;;;;;;4909025;28;45573;-64
2022/06/15 12:36:03;;;;;;;1.42;0.88;;;29.90;27.50;;;;;;4931545;28;45088;-65
2022/06/15 12:39:02;;;;;;;1.63;0.80;;;29.90;28.00;;;;;;4912113;28;45181;-64
2022/06/15 12:44:38;;;;;;;1.23;0.75;;;29.90;27.80;;;;;;4920163;28;45991;-63
2022/06/15 12:47:11;;;;;;;2.10;0.82;;;29.90;28.10;;;;;;4887798;28;45125;-62
2022/06/15 12:49:45;;;;;;;2.22;0.90;;;29.90;28.20;;;;;;4913684;28;44927;-63
2022/06/15 12:52:18;;;;;;;3.33;0.77;;;29.90;27.90;;;;;;4912405;28;44982;-62
2022/06/15 12:54:52;;;;;;;;;;;29.90;28.10;;;;;;4893886;28;45699;-64
2022/06/15 12:57:36;;;;;;;0.50;0.50;;;29.90;27.60;;;;;;4930068;28;45034;-62
2022/06/15 13:00:05;;;;;;;0.98;0.80;;;30.00;27.80;;;;;;4929282;28;44877;-61
2022/06/15 13:02:38;;;;;;;1.13;0.85;;;30.00;27.80;;;;;;4924802;28;45235;-63
2022/06/15 13:05:12;;;;;;;2.88;0.93;;;30.00;27.70;;;;;;4912360;28;47031;-64
2022/06/15 13:07:39;;;;;;;0.93;0.70;;;30.10;27.50;;;;;;4919037;28;45200;-64
2022/06/15 13:10:08;;;;;;;0.77;0.68;;;30.10;27.60;;;;;;4908257;28;45182;-63
2022/06/15 13:12:37;;;;;;;3.25;0.70;;;30.10;27.50;;;;;;4928856;28;45114;-63
2022/06/15 13:15:03;;;;;;;0.90;0.70;;;30.10;27.50;;;;;;4920141;28;45426;-64
2022/06/15 13:18:05;;;;;;;1.77;0.90;;;30.10;27.60;;;;;;4892224;28;44905;-63
2022/06/15 13:20:32;;;;;;;1.33;0.80;;;30.20;27.00;;;;;;4914972;28;45043;-62
2022/06/15 13:22:57;;;;;;;1.27;0.80;;;30.20;27.50;;;;;;4898057;28;45171;-62
2022/06/15 13:25:23;;;;;;;2.40;0.87;;;30.20;27.40;;;;;;4895585;28;45249;-62
2022/06/15 13:27:54;;;;;;;1.63;0.93;;;30.30;27.00;;;;;;4907719;28;45202;-61
2022/06/15 13:30:30;;;;;;;1.05;0.82;;;30.20;27.00;;;;;;4914999;28;45213;-62
2022/06/15 13:33:09;;;;;;;2.17;0.90;;;30.20;27.00;;;;;;4924586;28;45237;-64
2022/06/15 13:35:36;;;;;;;1.02;0.80;;;30.20;27.30;;;;;;4914511;28;46281;-65
2022/06/15 13:38:20;;;;;;;0.75;0.70;;;30.30;27.30;;;;;;4915572;28;45195;-65
2022/06/15 13:40:58;;;;;;;0.60;0.60;;;30.30;26.90;;;;;;4928603;28;45342;-64
2022/06/15 13:43:31;;;;;;;2.58;0.73;;;30.30;27.10;;;;;;4932909;28;44977;-65
2022/06/15 13:46:04;;;;;;;1.10;0.90;;;30.30;27.30;;;;;;4912880;28;45454;-64
2022/06/15 13:48:39;;;;;;;2.53;0.80;;;30.30;27.30;;;;;;4909835;28;45090;-64
2022/06/15 13:51:14;;;;;;;1.13;0.85;;;30.30;27.30;;;;;;4923926;28;45131;-64
2022/06/15 13:54:11;;;;;;;1.27;0.90;;;30.30;27.50;;;;;;4895009;28;45163;-63
2022/06/15 13:57:23;;;;;;;0.73;0.68;;;30.30;27.30;;;;;;4926562;28;45903;-62
2022/06/15 13:59:51;;;;;;;0.63;0.52;;;30.30;27.30;;;;;;4875110;28;45154;-65
2022/06/15 14:02:40;;;;;;;1.10;0.80;;;30.30;27.60;;;;;;4919064;28;45228;-64
2022/06/15 14:05:18;;;;;;;0.75;0.70;;;30.30;27.30;;;;;;4928565;28;45125;-66
2022/06/15 14:07:46;;;;;;;0.88;0.68;;;30.30;27.10;;;;;;4926535;28;46258;-64
2022/06/15 14:10:35;;;;;;;2.85;1.00;;;30.30;27.40;;;;;;4930930;28;45133;-63
2022/06/15 14:13:06;;;;;;;1.77;1.10;;;30.30;27.50;;;;;;4919220;28;44885;-64
2022/06/15 14:15:44;;;;;;;2.35;0.90;;;30.40;27.40;;;;;;4908517;28;44969;-65
2022/06/15 14:18:41;;;;;;;1.88;1.10;;;30.40;27.10;;;;;;4912704;28;45069;-63
2022/06/15 14:21:29;;;;;;;2.22;0.95;;;30.40;27.00;;;;;;4930630;28;44680;-63
2022/06/15 14:23:55;;;;;;;0.98;0.82;;;30.50;27.00;;;;;;4928326;28;44957;-63
2022/06/15 14:26:23;;;;;;;1.15;1.02;;;30.50;27.30;;;;;;4911339;28;45516;-62
2022/06/15 14:28:56;;;;;;;1.23;0.75;;;30.50;27.20;;;;;;4898134;28;47175;-64
2022/06/15 14:31:23;;;;;;;;;;;30.50;27.10;;;;;;4927797;28;45265;-63
2022/06/15 14:33:57;;;;;;;1.70;0.60;;;30.50;26.80;;;;;;4908755;28;44821;-64
2022/06/15 14:36:24;;;;;;;3.03;1.02;;;30.50;27.10;;;;;;4933114;28;45319;-64
2022/06/15 14:39:01;;;;;;;1.77;0.88;;;30.60;27.20;;;;;;4907901;28;45326;-63
2022/06/15 14:41:32;;;;;;;2.03;1.13;;;30.50;27.00;;;;;;4930237;28;45193;-61
2022/06/15 14:43:58;;;;;;;3.10;1.15;;;30.60;27.10;;;;;;4913266;28;44844;-63
2022/06/15 14:46:38;;;;;;;1.15;0.90;;;30.60;27.20;;;;;;4937648;28;44894;-64
2022/06/15 14:49:04;;;;;;;0.82;0.80;;;30.60;27.10;;;;;;4914711;28;47416;-63
2022/06/15 14:51:30;;;;;;;2.17;1.08;;;30.60;27.20;;;;;;4933312;28;44980;-64
2022/06/15 14:53:55;;;;;;;2.50;1.00;;;30.60;27.20;;;;;;4898403;28;45384;-63
2022/06/15 14:56:22;;;;;;;2.42;0.73;;;30.60;27.30;;;;;;4919622;28;45134;-60
2022/06/15 14:59:09;;;;;;;4.72;1.20;;;30.60;27.10;;;;;;4917995;28;45593;-61
2022/06/15 15:01:35;;;;;;;2.75;0.95;;;30.70;26.90;;;;;;4931394;28;45874;-63
2022/06/15 15:04:17;;;;;;;1.77;0.82;;;30.70;27.20;;;;;;4912441;28;45458;-60
2022/06/15 15:09:52;;;;;;;2.85;1.10;;;30.70;27.10;;;;;;4929713;28;45962;-60
2022/06/15 15:12:21;;;;;;;1.10;0.70;;;30.70;27.30;;;;;;4926516;28;45173;-59
2022/06/15 15:14:53;;;;;;;1.08;0.80;;;30.70;27.30;;;;;;4915857;28;45178;-60
2022/06/15 15:17:19;;;;;;;1.20;0.90;;;30.70;27.20;;;;;;4931452;28;45617;-58
2022/06/15 15:19:45;;;;;;;2.55;0.90;;;30.70;27.20;;;;;;4935841;28;46272;-56
2022/06/15 15:22:12;;;;;;;1.38;0.90;;;30.70;27.20;;;;;;4935337;28;44789;-59
2022/06/15 15:24:43;;;;;;;1.17;0.82;;;30.70;27.20;;;;;;4930066;28;45185;-59
2022/06/15 15:34:08;;;;;;;1.60;0.90;;;30.70;27.20;;;;;;4905819;28;45379;-67
2022/06/15 15:36:07;;;;;;;4.10;0.90;;;30.80;27.10;;;;;;4906719;28;45182;-65
2022/06/15 15:38:32;;;;;;;0.80;0.80;;;30.80;26.80;;;;;;4922643;28;45363;-63
2022/06/15 15:40:59;;;;;;;1.95;1.05;;;30.80;27.10;;;;;;4923758;28;45931;-56
2022/06/15 15:43:25;;;;;;;2.22;1.38;;;30.80;27.00;;;;;;4909356;28;45129;-61
2022/06/15 15:45:51;;;;;;;3.83;0.80;;;30.80;27.00;;;;;;4928897;28;44867;-62
2022/06/15 15:48:17;;;;;;;3.33;0.90;;;30.80;26.90;;;;;;4926353;28;45365;-63
2022/06/15 15:50:42;;;;;;;3.53;1.20;;;30.90;26.90;;;;;;4919611;28;46012;-65
2022/06/15 15:53:08;;;;;;;1.60;0.90;;;31.00;26.40;;;;;;4925353;28;44826;-57
2022/06/15 15:55:34;;;;;;;1.20;0.70;;;31.00;26.60;;;;;;4927134;28;45283;-64
2022/06/15 15:57:59;;;;;;;0.95;0.80;;;31.00;26.70;;;;;;4908531;28;45316;-62
2022/06/15 16:00:26;;;;;;;3.58;1.08;;;31.00;26.80;;;;;;4920393;28;45087;-61
2022/06/15 16:02:57;;;;;;;1.02;0.73;;;30.90;26.70;;;;;;4921187;28;45251;-65
2022/06/15 16:05:22;;;;;;;1.23;1.00;;;30.90;26.60;;;;;;4906972;28;45613;-64
2022/06/15 16:07:48;;;;;;;1.65;0.88;;;30.90;26.70;;;;;;4927757;28;45099;-58
2022/06/15 16:10:17;;;;;;;2.03;0.90;;;30.80;26.60;;;;;;4925554;28;45979;-59
2022/06/15 16:12:45;;;;;;;3.53;0.80;;;30.80;26.70;;;;;;4905769;28;45238;-63
2022/06/15 16:15:11;;;;;;;2.25;0.98;;;30.80;26.80;;;;;;4911772;28;45137;-63
2022/06/15 16:17:37;;;;;;;2.03;1.00;;;30.80;26.80;;;;;;4926720;28;45280;-61
2022/06/15 16:20:07;;;;;;;3.40;0.93;;;30.80;26.70;;;;;;4902836;28;46458;-58
2022/06/15 16:22:33;;;;;;;2.70;0.77;;;30.80;26.60;;;;;;4919382;28;44982;-62
2022/06/15 16:24:59;;;;;;;1.98;0.75;;;30.80;26.40;;;;;;4908837;28;45049;-60
2022/06/15 16:27:24;;;;;;;1.17;0.90;;;30.80;26.40;;;;;;4904966;28;45241;-60
2022/06/15 16:29:50;;;;;;;2.97;1.08;;;30.90;26.40;;;;;;4910315;28;45949;-65
2022/06/15 16:32:16;;;;;;;1.30;0.80;;;30.90;26.40;;;;;;4891594;28;45194;-58
2022/06/15 16:34:42;;;;;;;3.75;0.88;;;30.80;26.30;;;;;;4904553;28;45304;-58
2022/06/15 16:37:08;;;;;;;0.70;0.70;;;30.80;26.30;;;;;;4925804;28;44800;-61
2022/06/15 16:39:34;;;;;;;1.63;0.98;;;30.80;26.20;;;;;;4922640;28;46525;-64
2022/06/15 16:42:00;;;;;;;2.42;0.85;;;30.80;26.30;;;;;;4924092;28;46286;-63
2022/06/15 16:44:25;;;;;;;2.05;0.98;;;30.80;26.20;;;;;;4905699;28;45177;-63